Time;durP1;ratioP1;P1;durP2;ratioP2;P2;SDS_P1;SDS_P2;PMS_P1;PMS_P2;Temp;Humidity;BMP_temperature;BMP_pressure;BME280_temperature;BME280_humidity;BME280_pressure;Samples;Min_cycle;Max_cycle;Signal;HPM_P1;HPM_P2
2023/10/20 00:01:06;;;;;;;0.13;0.13;;;;;;;;;;4919100;29;20051;-86
2023/10/20 00:03:32;;;;;;;0.10;0.10;;;;;;;;;;4919035;29;20043;-87
2023/10/20 00:05:58;;;;;;;0.20;0.20;;;;;;;;;;4903176;29;20146;-87
2023/10/20 00:08:24;;;;;;;0.10;0.10;;;;;;;;;;4919113;29;20494;-86
2023/10/20 00:10:50;;;;;;;0.20;0.20;;;;;;;;;;4903293;29;20047;-87
2023/10/20 00:13:16;;;;;;;0.50;0.50;;;;;;;;;;4903474;29;20508;-87
2023/10/20 00:15:45;;;;;;;4.00;0.77;;;;;;;;;;4903138;29;20042;-86
2023/10/20 00:18:12;;;;;;;0.40;0.40;;;;;;;;;;4903063;29;20040;-87
2023/10/20 00:20:38;;;;;;;0.10;0.10;;;;;;;;;;4903164;29;20370;-87
2023/10/20 00:23:05;;;;;;;0.20;0.20;;;;;;;;;;4903342;29;20106;-87
2023/10/20 00:25:32;;;;;;;0.55;0.50;;;;;;;;;;4903256;29;20405;-87
2023/10/20 00:27:58;;;;;;;0.30;0.30;;;;;;;;;;4918727;29;20475;-88
2023/10/20 00:30:25;;;;;;;0.22;0.22;;;;;;;;;;4918713;29;20047;-87
2023/10/20 00:32:51;;;;;;;0.28;0.28;;;;;;;;;;4903039;29;20051;-88
2023/10/20 00:35:17;;;;;;;2.45;1.85;;;;;;;;;;4902646;29;20044;-87
2023/10/20 00:37:44;;;;;;;0.10;0.10;;;;;;;;;;4903110;29;20430;-87
2023/10/20 00:40:10;;;;;;;0.20;0.20;;;;;;;;;;4902702;29;20127;-87
2023/10/20 00:42:36;;;;;;;0.60;0.38;;;;;;;;;;4902773;29;20043;-87
2023/10/20 00:45:04;;;;;;;0.20;0.20;;;;;;;;;;4902727;29;20067;-87
2023/10/20 00:47:30;;;;;;;0.45;0.45;;;;;;;;;;4902373;29;20044;-88
2023/10/20 00:49:57;;;;;;;0.65;0.40;;;;;;;;;;4902612;29;20046;-88
2023/10/20 00:52:23;;;;;;;0.47;0.32;;;;;;;;;;4918242;29;20054;-88
2023/10/20 00:54:50;;;;;;;1.13;0.40;;;;;;;;;;4902282;29;20043;-88
2023/10/20 00:57:17;;;;;;;0.30;0.30;;;;;;;;;;4902528;29;20039;-88
2023/10/20 00:59:43;;;;;;;0.10;0.10;;;;;;;;;;4902350;29;20043;-88
2023/10/20 01:02:10;;;;;;;0.68;0.68;;;;;;;;;;4902405;29;20087;-87
2023/10/20 01:04:36;;;;;;;0.47;0.47;;;;;;;;;;4902199;29;20544;-88
2023/10/20 01:07:02;;;;;;;0.10;0.10;;;;;;;;;;4901214;29;20441;-88
2023/10/20 01:09:28;;;;;;;0.63;0.32;;;;;;;;;;4900939;29;20142;-87
2023/10/20 01:11:54;;;;;;;0.70;0.70;;;;;;;;;;4901668;29;20043;-87
2023/10/20 01:14:21;;;;;;;0.30;0.30;;;;;;;;;;4901437;29;20039;-87
2023/10/20 01:16:47;;;;;;;0.40;0.20;;;;;;;;;;4917242;29;20098;-86
2023/10/20 01:19:13;;;;;;;0.30;0.20;;;;;;;;;;4901343;29;20044;-87
2023/10/20 01:21:39;;;;;;;0.10;0.10;;;;;;;;;;4901681;29;20122;-87
2023/10/20 01:24:05;;;;;;;0.10;0.10;;;;;;;;;;4901429;29;20050;-87
2023/10/20 01:26:34;;;;;;;0.50;0.50;;;;;;;;;;4901426;29;20044;-86
2023/10/20 01:29:00;;;;;;;0.10;0.10;;;;;;;;;;4901474;29;20047;-87
2023/10/20 01:31:26;;;;;;;1.92;0.93;;;;;;;;;;4917340;29;20054;-87
2023/10/20 01:33:52;;;;;;;0.20;0.20;;;;;;;;;;4901618;29;20051;-87
2023/10/20 01:36:20;;;;;;;0.20;0.20;;;;;;;;;;4916945;29;20042;-87
2023/10/20 01:38:46;;;;;;;0.10;0.10;;;;;;;;;;4901197;29;20478;-87
2023/10/20 01:41:12;;;;;;;0.20;0.20;;;;;;;;;;4917208;29;20168;-86
2023/10/20 01:43:38;;;;;;;0.35;0.30;;;;;;;;;;4917015;29;20404;-86
2023/10/20 01:46:04;;;;;;;0.20;0.20;;;;;;;;;;4916912;29;20526;-87
2023/10/20 01:48:30;;;;;;;0.55;0.55;;;;;;;;;;4901207;29;20389;-87
2023/10/20 01:50:59;;;;;;;0.38;0.38;;;;;;;;;;4901138;29;20055;-88
2023/10/20 01:53:25;;;;;;;2.53;0.75;;;;;;;;;;4901570;29;20063;-87
2023/10/20 01:55:51;;;;;;;0.20;0.20;;;;;;;;;;4901027;29;20127;-87
2023/10/20 01:58:19;;;;;;;0.15;0.15;;;;;;;;;;4900915;29;20052;-87
2023/10/20 02:00:49;;;;;;;1.55;0.30;;;;;;;;;;4900901;29;20119;-88
2023/10/20 02:03:15;;;;;;;0.43;0.43;;;;;;;;;;4901254;29;20430;-88
2023/10/20 02:05:41;;;;;;;0.10;0.10;;;;;;;;;;4863408;29;1108017;-88
2023/10/20 02:08:08;;;;;;;2.28;0.73;;;;;;;;;;4901607;29;20102;-88
2023/10/20 02:10:34;;;;;;;0.20;0.20;;;;;;;;;;4901677;29;20059;-88
2023/10/20 02:13:01;;;;;;;0.30;0.30;;;;;;;;;;4902226;29;20400;-88
2023/10/20 02:15:27;;;;;;;0.45;0.45;;;;;;;;;;4901661;29;20039;-88
2023/10/20 02:17:53;;;;;;;1.35;0.70;;;;;;;;;;4901593;29;20055;-88
2023/10/20 02:20:22;;;;;;;0.10;0.10;;;;;;;;;;4919823;29;20130;-88
2023/10/20 02:22:50;;;;;;;0.10;0.10;;;;;;;;;;4905628;29;20134;-88
2023/10/20 02:25:16;;;;;;;0.10;0.10;;;;;;;;;;4905325;29;20047;-88
2023/10/20 02:27:42;;;;;;;0.63;0.63;;;;;;;;;;4905159;29;20377;-88
2023/10/20 02:30:10;;;;;;;0.20;0.20;;;;;;;;;;4904965;29;20035;-88
2023/10/20 02:32:36;;;;;;;0.22;0.22;;;;;;;;;;4904989;29;20395;-88
2023/10/20 02:35:02;;;;;;;0.10;0.10;;;;;;;;;;4905115;29;20497;-88
2023/10/20 02:37:28;;;;;;;0.10;0.10;;;;;;;;;;4904937;29;20489;-87
2023/10/20 02:39:54;;;;;;;1.55;0.40;;;;;;;;;;4905158;29;20039;-87
2023/10/20 02:42:20;;;;;;;0.25;0.25;;;;;;;;;;4905188;29;20434;-88
2023/10/20 02:44:47;;;;;;;0.10;0.10;;;;;;;;;;4904546;29;20058;-87
2023/10/20 02:47:14;;;;;;;0.47;0.38;;;;;;;;;;4904805;29;20040;-87
2023/10/20 02:49:40;;;;;;;0.30;0.30;;;;;;;;;;4904757;29;20047;-87
2023/10/20 02:52:07;;;;;;;0.52;0.50;;;;;;;;;;4904587;29;20062;-87
2023/10/20 02:54:34;;;;;;;0.30;0.30;;;;;;;;;;4904832;29;20098;-88
2023/10/20 02:57:00;;;;;;;0.52;0.35;;;;;;;;;;4904505;29;20040;-87
2023/10/20 02:59:26;;;;;;;0.65;0.65;;;;;;;;;;4904626;29;20086;-86
2023/10/20 03:01:55;;;;;;;0.15;0.15;;;;;;;;;;4904420;29;20082;-87
2023/10/20 03:04:21;;;;;;;0.10;0.10;;;;;;;;;;4904476;29;20040;-87
2023/10/20 03:06:48;;;;;;;1.17;0.30;;;;;;;;;;4904359;29;20420;-87
2023/10/20 03:09:14;;;;;;;0.10;0.10;;;;;;;;;;4904398;29;20059;-87
2023/10/20 03:11:40;;;;;;;0.45;0.45;;;;;;;;;;4904080;29;20044;-87
2023/10/20 03:14:06;;;;;;;0.25;0.25;;;;;;;;;;4904489;29;20389;-87
2023/10/20 03:16:37;;;;;;;2.72;0.43;;;;;;;;;;4920246;29;20165;-87
2023/10/20 03:19:04;;;;;;;0.45;0.30;;;;;;;;;;4904975;29;20102;-87
2023/10/20 03:21:31;;;;;;;0.30;0.30;;;;;;;;;;4919963;29;20079;-87
2023/10/20 03:23:57;;;;;;;0.10;0.10;;;;;;;;;;4904162;29;20083;-88
2023/10/20 03:26:24;;;;;;;0.30;0.30;;;;;;;;;;4904248;29;20048;-87
2023/10/20 03:28:51;;;;;;;0.52;0.40;;;;;;;;;;4919974;29;20043;-86
2023/10/20 03:31:17;;;;;;;0.82;0.82;;;;;;;;;;4903419;29;20048;-87
2023/10/20 03:33:43;;;;;;;1.10;0.28;;;;;;;;;;4904258;29;20472;-87
2023/10/20 03:36:09;;;;;;;2.35;0.30;;;;;;;;;;4903818;29;20045;-87
2023/10/20 03:38:37;;;;;;;0.13;0.13;;;;;;;;;;4903888;29;20051;-88
2023/10/20 03:41:06;;;;;;;0.20;0.20;;;;;;;;;;4919841;29;20055;-88
2023/10/20 03:43:35;;;;;;;0.20;0.20;;;;;;;;;;4903992;29;20039;-88
2023/10/20 03:46:02;;;;;;;0.40;0.40;;;;;;;;;;4903639;29;20040;-88
2023/10/20 03:48:29;;;;;;;0.35;0.30;;;;;;;;;;4903825;29;20052;-88
2023/10/20 03:50:58;;;;;;;0.43;0.43;;;;;;;;;;4903951;29;20481;-88
2023/10/20 03:53:27;;;;;;;0.40;0.40;;;;;;;;;;4903606;29;20095;-87
2023/10/20 03:56:07;;;;;;;0.30;0.30;;;;;;;;;;4903954;29;20046;-86
2023/10/20 03:58:35;;;;;;;0.30;0.30;;;;;;;;;;4904205;29;20043;-87
2023/10/20 04:01:04;;;;;;;0.65;0.55;;;;;;;;;;4919054;29;20106;-86
2023/10/20 04:03:30;;;;;;;0.10;0.10;;;;;;;;;;4903340;29;20481;-86
2023/10/20 04:05:56;;;;;;;0.10;0.10;;;;;;;;;;4918732;29;20413;-86
2023/10/20 04:08:23;;;;;;;0.45;0.45;;;;;;;;;;4936239;29;20047;-87
2023/10/20 04:10:49;;;;;;;0.10;0.10;;;;;;;;;;4903262;29;20047;-86
2023/10/20 04:13:16;;;;;;;1.05;0.30;;;;;;;;;;4918862;29;20485;-87
2023/10/20 04:15:42;;;;;;;0.40;0.40;;;;;;;;;;4918908;29;20123;-86
2023/10/20 04:18:09;;;;;;;0.20;0.20;;;;;;;;;;4918808;29;20090;-87
2023/10/20 04:20:39;;;;;;;1.35;1.35;;;;;;;;;;4903408;29;20047;-87
2023/10/20 04:23:07;;;;;;;0.20;0.20;;;;;;;;;;4903109;29;20043;-87
2023/10/20 04:25:38;;;;;;;0.25;0.25;;;;;;;;;;4903124;29;20051;-88
2023/10/20 05:07:57;;;;;;;0.10;0.10;;;;;;;;;;4902603;29;20052;-87
2023/10/20 05:10:26;;;;;;;;;;;;;;;;;;4918176;29;20051;-88
2023/10/20 05:12:53;;;;;;;0.40;0.40;;;;;;;;;;4917994;29;20005;-87
2023/10/20 05:15:19;;;;;;;0.10;0.10;;;;;;;;;;4917836;29;20461;-87
2023/10/20 05:17:50;;;;;;;0.35;0.35;;;;;;;;;;4902450;29;20503;-88
2023/10/20 05:20:20;;;;;;;0.10;0.10;;;;;;;;;;4902955;29;20044;-88
2023/10/20 05:22:46;;;;;;;0.47;0.40;;;;;;;;;;4902860;29;20047;-88
2023/10/20 05:25:12;;;;;;;0.30;0.30;;;;;;;;;;4902175;29;20391;-87
2023/10/20 05:27:38;;;;;;;0.10;0.10;;;;;;;;;;4902555;29;20409;-87
2023/10/20 05:30:04;;;;;;;0.40;0.40;;;;;;;;;;4902034;29;20040;-88
2023/10/20 05:32:31;;;;;;;0.30;0.30;;;;;;;;;;4901929;29;20044;-88
2023/10/20 05:35:01;;;;;;;0.20;0.20;;;;;;;;;;4901986;29;20048;-88
2023/10/20 05:37:27;;;;;;;0.10;0.10;;;;;;;;;;4902281;29;20508;-88
2023/10/20 05:39:53;;;;;;;0.10;0.10;;;;;;;;;;4901957;29;20039;-88
2023/10/20 05:42:20;;;;;;;1.20;0.63;;;;;;;;;;4901889;29;20078;-88
2023/10/20 05:45:02;;;;;;;0.20;0.20;;;;;;;;;;4917430;29;20142;-88
2023/10/20 05:47:28;;;;;;;0.30;0.30;;;;;;;;;;4904138;29;20063;-89
2023/10/20 05:49:56;;;;;;;0.10;0.10;;;;;;;;;;4901699;29;20047;-89
2023/10/20 05:52:22;;;;;;;0.10;0.10;;;;;;;;;;4901806;29;20043;-89
2023/10/20 05:54:49;;;;;;;0.22;0.22;;;;;;;;;;4903577;29;20501;-89
2023/10/20 05:57:16;;;;;;;0.20;0.20;;;;;;;;;;4905692;29;20099;-90
2023/10/20 05:59:43;;;;;;;0.10;0.10;;;;;;;;;;4905746;29;20044;-89
2023/10/20 06:02:09;;;;;;;0.10;0.10;;;;;;;;;;4905527;29;20043;-89
2023/10/20 06:04:35;;;;;;;0.10;0.10;;;;;;;;;;4905415;29;20047;-89
2023/10/20 06:07:01;;;;;;;0.45;0.45;;;;;;;;;;4905194;29;20067;-89
2023/10/20 06:09:28;;;;;;;0.10;0.10;;;;;;;;;;4905381;29;20047;-88
2023/10/20 06:11:54;;;;;;;0.20;0.20;;;;;;;;;;4905292;29;20039;-89
2023/10/20 06:14:21;;;;;;;0.40;0.40;;;;;;;;;;4905038;29;20097;-89
2023/10/20 06:16:47;;;;;;;0.10;0.10;;;;;;;;;;4905144;29;20548;-90
2023/10/20 06:19:13;;;;;;;0.17;0.17;;;;;;;;;;4905325;29;20039;-90
2023/10/20 06:21:42;;;;;;;0.20;0.20;;;;;;;;;;4920830;29;20117;-90
2023/10/20 06:24:11;;;;;;;0.20;0.20;;;;;;;;;;4905630;29;20399;-89
2023/10/20 06:26:38;;;;;;;0.35;0.20;;;;;;;;;;4905192;29;20528;-89
2023/10/20 06:29:21;;;;;;;0.10;0.10;;;;;;;;;;4905022;29;20044;-90
2023/10/20 06:34:34;;;;;;;0.10;0.10;;;;;;;;;;4907455;29;20051;-90
2023/10/20 06:37:12;;;;;;;0.38;0.38;;;;;;;;;;4905360;29;20044;-90
2023/10/20 06:39:38;;;;;;;0.32;0.32;;;;;;;;;;4906445;29;20055;-89
2023/10/20 06:42:09;;;;;;;0.20;0.20;;;;;;;;;;4904739;29;20047;-89
2023/10/20 06:44:35;;;;;;;0.10;0.10;;;;;;;;;;4905117;29;20075;-90
2023/10/20 06:47:01;;;;;;;0.10;0.10;;;;;;;;;;4904805;29;20375;-93
2023/10/20 06:49:28;;;;;;;0.15;0.15;;;;;;;;;;4904815;29;20051;-91
2023/10/20 06:51:54;;;;;;;0.40;0.40;;;;;;;;;;4904737;29;20127;-89
2023/10/20 06:54:20;;;;;;;0.10;0.10;;;;;;;;;;4904769;29;20135;-89
2023/10/20 06:56:46;;;;;;;0.20;0.20;;;;;;;;;;4904104;29;20036;-89
2023/10/20 06:59:13;;;;;;;0.20;0.20;;;;;;;;;;4920769;29;20110;-91
2023/10/20 07:01:40;;;;;;;0.20;0.20;;;;;;;;;;4904956;29;20043;-89
2023/10/20 07:04:08;;;;;;;0.30;0.30;;;;;;;;;;4905088;29;20460;-91
2023/10/20 07:06:36;;;;;;;0.32;0.32;;;;;;;;;;4884306;29;20067;-89
2023/10/20 07:09:11;;;;;;;0.10;0.10;;;;;;;;;;4870409;29;20586;-90
2023/10/20 07:11:37;;;;;;;0.15;0.15;;;;;;;;;;4889233;29;20442;-90
2023/10/20 07:14:05;;;;;;;0.20;0.20;;;;;;;;;;4901066;29;20050;-90
2023/10/20 07:16:31;;;;;;;1.45;0.20;;;;;;;;;;4894815;29;20044;-89
2023/10/20 07:18:57;;;;;;;0.10;0.10;;;;;;;;;;4884996;29;20196;-89
2023/10/20 07:21:23;;;;;;;0.20;0.20;;;;;;;;;;4898133;29;20059;-90
2023/10/20 07:23:50;;;;;;;0.30;0.30;;;;;;;;;;4901113;29;20075;-90
2023/10/20 07:26:17;;;;;;;0.10;0.10;;;;;;;;;;4880984;29;20044;-90
2023/10/20 07:28:47;;;;;;;0.22;0.15;;;;;;;;;;4903814;29;20044;-90
2023/10/20 07:31:13;;;;;;;0.32;0.32;;;;;;;;;;4888066;29;20176;-89
2023/10/20 07:33:39;;;;;;;0.10;0.10;;;;;;;;;;4904090;29;20095;-90
2023/10/20 07:36:05;;;;;;;0.10;0.10;;;;;;;;;;4910606;29;20482;-89
2023/10/20 07:38:31;;;;;;;0.10;0.10;;;;;;;;;;4885189;29;20398;-91
2023/10/20 07:41:07;;;;;;;0.45;0.30;;;;;;;;;;4874594;29;20059;-91
2023/10/20 07:43:33;;;;;;;0.10;0.10;;;;;;;;;;4885244;29;20210;-91
2023/10/20 07:46:00;;;;;;;0.40;0.40;;;;;;;;;;4892962;29;20043;-91
2023/10/20 07:48:26;;;;;;;0.28;0.28;;;;;;;;;;4903827;29;20044;-90
2023/10/20 07:50:52;;;;;;;0.10;0.10;;;;;;;;;;4919061;29;20052;-91
2023/10/20 07:53:19;;;;;;;0.20;0.20;;;;;;;;;;4903899;29;20531;-89
2023/10/20 07:55:45;;;;;;;0.10;0.10;;;;;;;;;;4885039;29;20040;-90
2023/10/20 07:58:11;;;;;;;0.10;0.10;;;;;;;;;;4884553;29;20042;-90
2023/10/20 08:00:37;;;;;;;0.17;0.17;;;;;;;;;;4889311;29;20036;-90
2023/10/20 08:03:03;;;;;;;0.10;0.10;;;;;;;;;;4919334;29;20496;-89
2023/10/20 08:05:29;;;;;;;0.13;0.13;;;;;;;;;;4887071;29;20055;-89
2023/10/20 08:07:58;;;;;;;0.10;0.10;;;;;;;;;;4903500;29;20044;-90
2023/10/20 08:10:24;;;;;;;0.10;0.10;;;;;;;;;;4903136;29;20083;-90
2023/10/20 08:12:50;;;;;;;0.10;0.10;;;;;;;;;;4903452;29;20044;-89
2023/10/20 08:15:16;;;;;;;0.10;0.10;;;;;;;;;;4902849;29;20036;-90
2023/10/20 08:17:44;;;;;;;0.20;0.20;;;;;;;;;;4902849;29;20043;-89
2023/10/20 08:20:11;;;;;;;0.10;0.10;;;;;;;;;;4887802;29;20048;-93
2023/10/20 08:22:37;;;;;;;0.20;0.20;;;;;;;;;;4887762;29;20043;-93
2023/10/20 08:27:39;;;;;;;0.10;0.10;;;;;;;;;;5365732;23;20051;-93
2023/10/20 08:30:05;;;;;;;0.10;0.10;;;;;;;;;;4904275;29;20048;-90
2023/10/20 08:32:31;;;;;;;0.10;0.10;;;;;;;;;;4904027;29;20044;-90
2023/10/20 08:34:58;;;;;;;0.10;0.10;;;;;;;;;;4903899;29;20065;-90
2023/10/20 08:37:25;;;;;;;0.20;0.20;;;;;;;;;;4901638;29;20035;-94
2023/10/20 08:39:51;;;;;;;0.22;0.22;;;;;;;;;;4887345;29;20043;-89
2023/10/20 08:42:17;;;;;;;0.10;0.10;;;;;;;;;;4885402;29;20504;-91
2023/10/20 08:44:46;;;;;;;0.10;0.10;;;;;;;;;;4887994;29;20048;-93
2023/10/20 08:47:16;;;;;;;0.20;0.20;;;;;;;;;;4888028;29;20043;-91
2023/10/20 08:49:42;;;;;;;0.10;0.10;;;;;;;;;;4895026;29;20397;-91
2023/10/20 08:52:08;;;;;;;0.10;0.10;;;;;;;;;;4919563;29;20052;-89
2023/10/20 08:54:38;;;;;;;0.20;0.20;;;;;;;;;;4904202;29;20400;-90
2023/10/20 08:57:06;;;;;;;0.20;0.20;;;;;;;;;;4887873;29;20437;-90
2023/10/20 08:59:35;;;;;;;0.10;0.10;;;;;;;;;;4906986;29;20044;-91
2023/10/20 09:02:01;;;;;;;0.20;0.20;;;;;;;;;;4900357;29;20055;-91
2023/10/20 09:04:28;;;;;;;0.13;0.13;;;;;;;;;;4900654;29;20044;-93
2023/10/20 09:06:54;;;;;;;0.20;0.20;;;;;;;;;;4888756;29;20040;-90
2023/10/20 09:09:20;;;;;;;0.10;0.10;;;;;;;;;;4884829;29;20087;-92
2023/10/20 09:11:46;;;;;;;0.10;0.10;;;;;;;;;;4884278;29;20087;-89
2023/10/20 09:14:13;;;;;;;0.10;0.10;;;;;;;;;;4894674;29;20119;-90
2023/10/20 09:16:39;;;;;;;0.20;0.20;;;;;;;;;;4887149;29;20052;-91
2023/10/20 09:19:06;;;;;;;0.10;0.10;;;;;;;;;;4884709;29;20040;-91
2023/10/20 09:21:32;;;;;;;0.25;0.25;;;;;;;;;;4884799;29;20040;-93
2023/10/20 09:23:59;;;;;;;0.10;0.10;;;;;;;;;;4900404;29;20079;-92
2023/10/20 09:26:26;;;;;;;0.10;0.10;;;;;;;;;;4869574;29;20084;-92
2023/10/20 09:28:56;;;;;;;0.22;0.22;;;;;;;;;;4899748;29;20118;-94
2023/10/20 09:31:22;;;;;;;0.10;0.10;;;;;;;;;;4885360;29;20059;-93
2023/10/20 09:33:49;;;;;;;0.10;0.10;;;;;;;;;;4886765;29;20036;-92
2023/10/20 09:36:15;;;;;;;0.65;0.30;;;;;;;;;;4872178;29;20044;-92
2023/10/20 09:38:44;;;;;;;0.10;0.10;;;;;;;;;;4916961;29;20121;-90
2023/10/20 09:41:18;;;;;;;0.10;0.10;;;;;;;;;;5227719;23;20027;-91
2023/10/20 09:43:49;;;;;;;0.10;0.10;;;;;;;;;;5134727;23;20108;-93
2023/10/20 09:46:20;;;;;;;0.10;0.10;;;;;;;;;;4891522;29;20082;-92
2023/10/20 09:48:46;;;;;;;0.10;0.10;;;;;;;;;;4885391;29;20409;-91
2023/10/20 09:51:12;;;;;;;0.10;0.10;;;;;;;;;;4868935;29;20103;-92
2023/10/20 09:53:38;;;;;;;0.45;0.30;;;;;;;;;;4867879;29;20040;-91
2023/10/20 09:56:05;;;;;;;0.10;0.10;;;;;;;;;;4865729;29;20490;-90
2023/10/20 09:58:34;;;;;;;0.10;0.10;;;;;;;;;;4862394;29;20097;-91
2023/10/20 10:01:00;;;;;;;0.20;0.20;;;;;;;;;;4832540;29;20189;-93
2023/10/20 10:03:37;;;;;;;0.10;0.10;;;;;;;;;;4891446;29;20347;-94
2023/10/20 10:06:08;;;;;;;0.10;0.10;;;;;;;;;;4866497;29;20048;-93
2023/10/20 10:08:34;;;;;;;0.35;0.35;;;;;;;;;;4879782;29;20048;-92
2023/10/20 10:11:16;;;;;;;0.10;0.10;;;;;;;;;;4868823;29;20515;-92
2023/10/20 10:13:43;;;;;;;0.20;0.20;;;;;;;;;;4869065;29;20043;-94
2023/10/20 10:16:13;;;;;;;0.10;0.10;;;;;;;;;;4911415;29;20426;-91
2023/10/20 10:18:48;;;;;;;0.10;0.10;;;;;;;;;;4880889;29;20052;-92
2023/10/20 10:21:32;;;;;;;0.10;0.10;;;;;;;;;;4865671;29;20048;-92
2023/10/20 10:24:11;;;;;;;0.20;0.20;;;;;;;;;;4863414;29;20042;-91
2023/10/20 10:26:57;;;;;;;0.15;0.15;;;;;;;;;;4880721;29;20092;-96
2023/10/20 10:48:35;;;;;;;0.30;0.30;;;;;;;;;;5522841;23;20075;-94
2023/10/20 10:51:45;;;;;;;0.10;0.10;;;;;;;;;;4923659;29;20060;-92
2023/10/20 10:57:35;;;;;;;;;;;;;;;;;;;;;
2023/10/20 11:03:30;;;;;;;0.45;0.30;;;;;;;;;;5637827;23;20334;-94
2023/10/20 11:06:19;;;;;;;0.13;0.13;;;;;;;;;;4921910;29;20050;-95
2023/10/20 11:08:52;;;;;;;0.47;0.47;;;;;;;;;;4911170;29;20052;-93
2023/10/20 11:11:26;;;;;;;0.10;0.10;;;;;;;;;;4904655;29;20043;-91
2023/10/20 11:14:19;;;;;;;0.10;0.10;;;;;;;;;;4907783;29;20050;-94
2023/10/20 11:16:55;;;;;;;;;;;;;;;;;;;;;
2023/10/20 11:22:22;;;;;;;0.10;0.10;;;;;;;;;;4989509;23;20059;-94
2023/10/20 11:24:54;;;;;;;0.20;0.20;;;;;;;;;;5019649;23;21076;-94
2023/10/20 11:27:42;;;;;;;0.10;0.10;;;;;;;;;;4918308;29;20039;-95
2023/10/20 11:30:17;;;;;;;0.10;0.10;;;;;;;;;;4891860;29;20083;-96
2023/10/20 11:32:46;;;;;;;0.10;0.10;;;;;;;;;;4895517;29;20044;-95
2023/10/20 11:35:18;;;;;;;0.20;0.20;;;;;;;;;;4878186;29;20116;-95
2023/10/20 11:37:46;;;;;;;0.10;0.10;;;;;;;;;;4917137;29;20047;-94
2023/10/20 11:40:13;;;;;;;0.10;0.10;;;;;;;;;;4893781;29;20438;-93
2023/10/20 11:42:39;;;;;;;0.10;0.10;;;;;;;;;;4889880;29;20120;-94
2023/10/20 11:45:05;;;;;;;0.10;0.10;;;;;;;;;;4904736;29;20052;-93
2023/10/20 11:47:33;;;;;;;0.10;0.10;;;;;;;;;;4888988;29;20039;-95
2023/10/20 11:49:59;;;;;;;0.10;0.10;;;;;;;;;;4889074;29;20043;-92
2023/10/20 11:52:25;;;;;;;0.20;0.20;;;;;;;;;;4904316;29;20063;-91
2023/10/20 11:54:52;;;;;;;0.10;0.10;;;;;;;;;;4904908;29;20063;-95
2023/10/20 11:58:20;;;;;;;0.10;0.10;;;;;;;;;;4896127;29;20058;-90
2023/10/20 12:00:41;;;;;;;0.15;0.15;;;;;;;;;;4920788;29;20035;-93
2023/10/20 12:03:08;;;;;;;0.10;0.10;;;;;;;;;;4890152;29;20047;-95
2023/10/20 12:05:36;;;;;;;0.10;0.10;;;;;;;;;;4904690;29;20279;-93
2023/10/20 12:08:04;;;;;;;0.10;0.10;;;;;;;;;;4897205;29;20465;-95
2023/10/20 12:10:31;;;;;;;0.20;0.20;;;;;;;;;;4904892;29;20043;-94
2023/10/20 12:13:26;;;;;;;0.10;0.10;;;;;;;;;;4917603;29;20044;-95
2023/10/20 12:15:52;;;;;;;0.13;0.13;;;;;;;;;;4928534;29;20518;-94
2023/10/20 12:18:18;;;;;;;0.10;0.10;;;;;;;;;;4921002;29;20044;-94
2023/10/20 12:20:44;;;;;;;0.10;0.10;;;;;;;;;;4889429;29;20039;-94
2023/10/20 12:23:10;;;;;;;0.10;0.10;;;;;;;;;;4921168;29;20086;-95
2023/10/20 12:25:36;;;;;;;0.10;0.10;;;;;;;;;;4921697;29;20520;-96
2023/10/20 12:28:02;;;;;;;0.10;0.10;;;;;;;;;;4892845;29;20078;-95
2023/10/20 12:30:28;;;;;;;0.10;0.10;;;;;;;;;;4906032;29;20070;-93
2023/10/20 12:32:54;;;;;;;0.20;0.20;;;;;;;;;;4906611;29;20107;-93
2023/10/20 12:35:20;;;;;;;0.10;0.10;;;;;;;;;;4905476;29;20138;-94
2023/10/20 12:37:47;;;;;;;0.10;0.10;;;;;;;;;;4920662;29;20064;-94
2023/10/20 12:40:13;;;;;;;0.10;0.10;;;;;;;;;;4921694;29;20132;-93
2023/10/20 12:42:40;;;;;;;0.20;0.20;;;;;;;;;;4919430;29;20360;-91
2023/10/20 12:45:09;;;;;;;0.20;0.20;;;;;;;;;;4888186;29;20044;-90
2023/10/20 12:47:35;;;;;;;0.20;0.20;;;;;;;;;;4919391;29;20115;-91
2023/10/20 12:50:01;;;;;;;0.10;0.10;;;;;;;;;;4903368;29;20047;-90
2023/10/20 12:52:27;;;;;;;0.10;0.10;;;;;;;;;;4918713;29;20094;-92
2023/10/20 12:54:53;;;;;;;0.25;0.25;;;;;;;;;;4889059;29;20047;-90
2023/10/20 12:57:19;;;;;;;0.10;0.10;;;;;;;;;;4903757;29;20193;-94
2023/10/20 12:59:45;;;;;;;0.10;0.10;;;;;;;;;;4920697;29;20440;-92
2023/10/20 13:02:11;;;;;;;0.10;0.10;;;;;;;;;;4908625;29;20039;-94
2023/10/20 13:04:37;;;;;;;0.10;0.10;;;;;;;;;;4890495;29;20043;-95
2023/10/20 13:07:06;;;;;;;0.13;0.13;;;;;;;;;;4889774;29;20047;-95
2023/10/20 13:09:35;;;;;;;0.10;0.10;;;;;;;;;;4928735;29;20057;-94
2023/10/20 13:12:01;;;;;;;0.57;0.57;;;;;;;;;;4896606;29;20135;-95
2023/10/20 13:14:28;;;;;;;0.10;0.10;;;;;;;;;;4906693;29;20054;-96
2023/10/20 13:16:54;;;;;;;0.10;0.10;;;;;;;;;;4906137;29;20047;-95
2023/10/20 13:19:20;;;;;;;0.40;0.40;;;;;;;;;;4921411;29;20517;-94
2023/10/20 13:21:46;;;;;;;0.20;0.20;;;;;;;;;;4888836;29;20047;-95
2023/10/20 13:24:12;;;;;;;0.10;0.10;;;;;;;;;;4888956;29;20134;-96
2023/10/20 13:26:38;;;;;;;0.10;0.10;;;;;;;;;;4888223;29;20497;-93
2023/10/20 13:29:13;;;;;;;0.10;0.10;;;;;;;;;;4905164;29;20190;-93
2023/10/20 13:31:39;;;;;;;0.10;0.10;;;;;;;;;;4910442;29;20054;-95
2023/10/20 13:34:08;;;;;;;0.10;0.10;;;;;;;;;;4895168;29;20099;-95
2023/10/20 13:36:39;;;;;;;0.10;0.10;;;;;;;;;;5453058;23;20079;-95
2023/10/20 13:45:12;;;;;;;0.10;0.10;;;;;;;;;;5057099;23;20282;-94
2023/10/20 13:47:41;;;;;;;0.43;0.43;;;;;;;;;;4929077;29;20047;-92
2023/10/20 14:01:09;;;;;;;0.10;0.10;;;;;;;;;;5984030;23;20043;-96
2023/10/20 14:03:35;;;;;;;0.10;0.10;;;;;;;;;;4887085;29;20103;-95
2023/10/20 14:06:07;;;;;;;0.20;0.20;;;;;;;;;;4870727;29;20134;-94
2023/10/20 14:08:35;;;;;;;0.10;0.10;;;;;;;;;;4870389;29;20540;-95
2023/10/20 14:11:04;;;;;;;0.10;0.10;;;;;;;;;;4851393;29;20316;-95
2023/10/20 14:13:30;;;;;;;0.10;0.10;;;;;;;;;;4851388;29;20104;-94
2023/10/20 14:18:59;;;;;;;0.22;0.22;;;;;;;;;;4965147;23;20461;-93
2023/10/20 14:21:25;;;;;;;1.48;0.38;;;;;;;;;;4905345;29;20047;-94
2023/10/20 14:23:51;;;;;;;0.10;0.10;;;;;;;;;;4888258;29;20127;-94
2023/10/20 14:26:17;;;;;;;0.10;0.10;;;;;;;;;;4888332;29;20040;-95
2023/10/20 14:28:43;;;;;;;0.10;0.10;;;;;;;;;;4888066;29;20051;-94
2023/10/20 14:31:16;;;;;;;0.10;0.10;;;;;;;;;;4891706;29;20088;-93
2023/10/20 14:33:42;;;;;;;0.10;0.10;;;;;;;;;;4891885;29;20046;-95
2023/10/20 14:36:17;;;;;;;0.10;0.10;;;;;;;;;;4904346;29;20079;-93
2023/10/20 14:38:43;;;;;;;0.10;0.10;;;;;;;;;;4891467;29;20481;-95
2023/10/20 14:41:12;;;;;;;0.10;0.10;;;;;;;;;;4888918;29;20055;-93
2023/10/20 14:43:41;;;;;;;0.20;0.20;;;;;;;;;;4888143;29;20450;-93
2023/10/20 14:46:19;;;;;;;0.10;0.10;;;;;;;;;;4896711;29;20050;-94
2023/10/20 14:48:57;;;;;;;0.10;0.10;;;;;;;;;;4890614;29;20171;-93
2023/10/20 14:54:07;;;;;;;0.10;0.10;;;;;;;;;;4956140;23;20425;-93
2023/10/20 14:56:33;;;;;;;0.10;0.10;;;;;;;;;;4883277;29;20446;-91
2023/10/20 14:58:59;;;;;;;0.10;0.10;;;;;;;;;;4873383;29;20142;-95
2023/10/20 15:01:26;;;;;;;0.30;0.30;;;;;;;;;;4875851;29;20043;-92
2023/10/20 15:04:15;;;;;;;0.10;0.10;;;;;;;;;;4878070;29;20036;-95
2023/10/20 15:06:44;;;;;;;0.10;0.10;;;;;;;;;;4892812;29;20059;-93
2023/10/20 15:09:14;;;;;;;0.10;0.10;;;;;;;;;;4886199;29;20044;-96
2023/10/20 15:11:40;;;;;;;0.10;0.10;;;;;;;;;;4883079;29;20071;-93
2023/10/20 15:14:09;;;;;;;0.10;0.10;;;;;;;;;;4886346;28;20104;-93
2023/10/20 15:21:47;;;;;;;0.10;0.10;;;;;;;;;;5077662;23;19934;-92
2023/10/20 15:24:14;;;;;;;0.10;0.10;;;;;;;;;;4871160;29;20040;-92
2023/10/20 15:26:40;;;;;;;0.10;0.10;;;;;;;;;;4870166;29;20048;-92
2023/10/20 15:29:06;;;;;;;0.20;0.20;;;;;;;;;;4871295;29;20232;-92
2023/10/20 15:31:32;;;;;;;0.32;0.30;;;;;;;;;;4872353;29;20164;-95
2023/10/20 15:33:58;;;;;;;0.20;0.20;;;;;;;;;;4888737;29;20509;-92
2023/10/20 15:36:26;;;;;;;0.10;0.10;;;;;;;;;;4886558;29;20044;-90
2023/10/20 15:38:52;;;;;;;0.10;0.10;;;;;;;;;;4870881;29;20131;-92
2023/10/20 15:43:57;;;;;;;0.10;0.10;;;;;;;;;;5017849;23;20063;-91
2023/10/20 15:46:23;;;;;;;0.20;0.20;;;;;;;;;;4870984;29;20047;-91
2023/10/20 15:48:49;;;;;;;0.10;0.10;;;;;;;;;;4870592;29;20096;-92
2023/10/20 15:51:15;;;;;;;0.20;0.20;;;;;;;;;;4886170;29;20052;-93
2023/10/20 15:53:41;;;;;;;0.20;0.20;;;;;;;;;;4870787;29;20044;-93
2023/10/20 15:56:09;;;;;;;0.10;0.10;;;;;;;;;;4870481;29;20123;-93
2023/10/20 15:58:36;;;;;;;0.20;0.20;;;;;;;;;;4866960;29;20081;-92
2023/10/20 16:01:04;;;;;;;0.20;0.20;;;;;;;;;;4867658;29;20044;-93
2023/10/20 16:03:30;;;;;;;0.10;0.10;;;;;;;;;;4867437;29;20084;-94
2023/10/20 16:05:56;;;;;;;0.20;0.20;;;;;;;;;;4867476;29;20216;-94
2023/10/20 16:08:22;;;;;;;0.10;0.10;;;;;;;;;;4867173;29;20056;-95
2023/10/20 16:10:49;;;;;;;0.10;0.10;;;;;;;;;;4867172;29;20048;-91
2023/10/20 16:13:15;;;;;;;0.20;0.20;;;;;;;;;;4867217;29;20048;-93
2023/10/20 16:15:41;;;;;;;0.10;0.10;;;;;;;;;;4867004;29;20041;-94
2023/10/20 16:18:07;;;;;;;0.32;0.32;;;;;;;;;;4866573;29;20041;-94
2023/10/20 16:20:33;;;;;;;0.30;0.30;;;;;;;;;;4866804;29;20040;-94
2023/10/20 16:22:59;;;;;;;0.38;0.38;;;;;;;;;;4866796;29;20047;-92
2023/10/20 16:25:25;;;;;;;0.10;0.10;;;;;;;;;;4867059;29;20112;-92
2023/10/20 16:27:51;;;;;;;0.10;0.10;;;;;;;;;;4866696;29;20067;-93
2023/10/20 16:30:17;;;;;;;0.10;0.10;;;;;;;;;;4866522;29;20490;-92
2023/10/20 16:32:43;;;;;;;0.10;0.10;;;;;;;;;;4866415;29;20044;-93
2023/10/20 16:35:09;;;;;;;0.10;0.10;;;;;;;;;;4866655;29;20041;-92